Time;durP1;ratioP1;P1;durP2;ratioP2;P2;SDS_P1;SDS_P2;PMS_P1;PMS_P2;Temp;Humidity;BMP_temperature;BMP_pressure;BME280_temperature;BME280_humidity;BME280_pressure;Samples;Min_cycle;Max_cycle;Signal;HPM_P1;HPM_P2
2021/07/01 00:00:50;;;;;;;18.70;7.30;;;16.60;1.00;;;;;;5055488;28;20250;-73
2021/07/01 00:03:16;;;;;;;16.43;7.80;;;16.50;1.00;;;;;;5062591;28;20795;-73
2021/07/01 00:05:43;;;;;;;10.73;6.50;;;16.60;1.00;;;;;;5061455;28;20176;-73
2021/07/01 00:08:09;;;;;;;19.40;7.70;;;16.50;1.00;;;;;;5075304;28;20158;-73
2021/07/01 00:10:35;;;;;;;14.50;7.30;;;;;;;;;;5074256;28;20855;-74
2021/07/01 00:13:01;;;;;;;11.63;7.30;;;16.40;1.00;;;;;;5075086;28;20368;-73
2021/07/01 00:15:30;;;;;;;11.60;6.93;;;16.40;1.00;;;;;;5062944;28;20541;-73
2021/07/01 00:17:57;;;;;;;11.80;7.20;;;16.30;1.00;;;;;;5066189;28;20407;-73
2021/07/01 00:20:23;;;;;;;12.03;7.30;;;16.30;1.00;;;;;;5058767;28;20396;-73
2021/07/01 00:22:51;;;;;;;9.47;6.57;;;16.40;1.00;;;;;;5071594;28;20437;-73
2021/07/01 00:25:18;;;;;;;12.07;7.30;;;16.30;1.00;;;;;;5074257;28;20417;-73
2021/07/01 00:27:44;;;;;;;12.57;7.33;;;16.30;1.00;;;;;;5074740;28;20398;-73
2021/07/01 00:30:11;;;;;;;20.13;6.80;;;16.30;1.00;;;;;;5074663;28;20478;-73
2021/07/01 00:32:38;;;;;;;25.20;8.90;;;;;;;;;;5056204;28;20396;-73
2021/07/01 00:35:05;;;;;;;15.43;7.80;;;16.30;1.00;;;;;;5053054;28;20934;-73
2021/07/01 00:37:32;;;;;;;16.03;7.37;;;16.30;1.00;;;;;;5053731;28;20449;-74
2021/07/01 00:40:07;;;;;;;13.90;7.17;;;16.20;1.00;;;;;;5053977;28;20404;-73
2021/07/01 00:42:32;;;;;;;9.77;6.53;;;16.10;1.00;;;;;;5071426;28;20403;-73
2021/07/01 00:45:05;;;;;;;14.50;6.37;;;16.10;1.00;;;;;;5074324;28;20437;-73
2021/07/01 00:47:32;;;;;;;9.83;6.60;;;16.10;1.00;;;;;;5073909;28;20171;-73
2021/07/01 00:50:02;;;;;;;13.93;6.13;;;16.10;1.00;;;;;;5066504;28;20430;-74
2021/07/01 00:52:28;;;;;;;11.60;6.40;;;;;;;;;;5054650;28;20402;-74
2021/07/01 00:54:53;;;;;;;15.30;6.73;;;16.00;1.00;;;;;;5073292;28;20408;-73
2021/07/01 00:57:19;;;;;;;15.13;6.07;;;;;;;;;;5064560;28;20480;-73
2021/07/01 00:59:45;;;;;;;11.70;6.90;;;16.10;1.00;;;;;;5053950;28;20685;-73
2021/07/01 01:02:11;;;;;;;13.57;6.70;;;16.10;1.00;;;;;;5054018;28;20408;-74
2021/07/01 01:04:37;;;;;;;15.17;6.83;;;16.00;1.00;;;;;;5060060;28;20400;-74
2021/07/01 01:07:03;;;;;;;11.97;6.30;;;16.10;1.00;;;;;;5053779;28;20175;-73
2021/07/01 01:09:30;;;;;;;13.13;6.13;;;16.10;1.00;;;;;;5053435;28;20179;-73
2021/07/01 01:11:55;;;;;;;13.33;6.13;;;16.10;1.00;;;;;;5053026;28;20377;-73
2021/07/01 01:14:21;;;;;;;15.33;6.50;;;16.10;1.00;;;;;;5053527;28;20414;-73
2021/07/01 01:16:47;;;;;;;13.27;5.70;;;16.10;1.00;;;;;;5053403;28;20192;-74
2021/07/01 01:19:13;;;;;;;8.47;5.50;;;;;;;;;;5052848;28;20658;-74
2021/07/01 01:21:42;;;;;;;11.13;6.00;;;16.20;1.00;;;;;;5071507;28;20757;-74
2021/07/01 01:24:08;;;;;;;8.47;5.90;;;16.10;1.00;;;;;;5069655;28;20437;-74
2021/07/01 01:26:34;;;;;;;8.83;5.10;;;16.20;1.00;;;;;;5053724;28;20366;-74
2021/07/01 01:29:00;;;;;;;10.33;5.17;;;16.20;1.00;;;;;;5053580;28;20176;-75
2021/07/01 01:31:27;;;;;;;8.97;5.50;;;16.20;1.00;;;;;;5053629;28;20904;-75
2021/07/01 01:33:53;;;;;;;10.37;5.47;;;16.20;1.00;;;;;;5053842;28;20615;-75
2021/07/01 01:36:19;;;;;;;7.33;5.43;;;;;;;;;;5053265;28;20527;-75
2021/07/01 01:38:57;;;;;;;14.50;6.73;;;16.20;1.00;;;;;;5053830;28;20365;-75
2021/07/01 01:41:45;;;;;;;8.43;5.50;;;16.20;1.00;;;;;;5054273;28;20837;-75
2021/07/01 01:44:15;;;;;;;9.70;5.53;;;16.20;1.00;;;;;;5053991;28;20417;-75
2021/07/01 01:46:41;;;;;;;7.63;5.00;;;16.10;1.00;;;;;;5053095;28;20800;-75
2021/07/01 01:49:08;;;;;;;14.93;6.27;;;16.20;1.00;;;;;;5052739;28;20433;-75
2021/07/01 01:51:48;;;;;;;14.53;6.57;;;16.20;1.00;;;;;;5053188;28;20167;-75
2021/07/01 01:54:16;;;;;;;16.07;5.60;;;16.20;1.00;;;;;;5053355;28;20418;-73
2021/07/01 01:56:48;;;;;;;7.20;5.07;;;16.20;1.00;;;;;;5059735;28;20450;-73
2021/07/01 01:59:14;;;;;;;12.17;5.67;;;16.20;1.00;;;;;;5073165;28;20389;-73
2021/07/01 02:01:40;;;;;;;12.00;5.10;;;16.30;1.00;;;;;;5063574;28;20737;-74
2021/07/01 02:04:15;;;;;;;14.33;5.30;;;16.30;1.00;;;;;;5053044;28;20162;-74
2021/07/01 02:06:41;;;;;;;8.40;5.70;;;16.20;1.00;;;;;;5065858;28;20417;-73
2021/07/01 02:09:07;;;;;;;11.13;4.97;;;16.30;1.00;;;;;;5070243;28;20427;-75
2021/07/01 02:11:57;;;;;;;8.90;5.40;;;16.30;1.00;;;;;;5071218;28;20618;-75
2021/07/01 02:14:23;;;;;;;8.60;4.90;;;16.30;1.00;;;;;;5068010;28;20172;-75
2021/07/01 02:16:49;;;;;;;8.47;4.70;;;16.30;1.00;;;;;;5053008;28;20491;-75
2021/07/01 02:19:21;;;;;;;7.07;4.27;;;16.30;1.00;;;;;;5053024;28;20726;-75
2021/07/01 02:21:47;;;;;;;9.70;4.67;;;16.30;1.00;;;;;;5052928;28;20175;-75
2021/07/01 02:24:13;;;;;;;9.80;4.70;;;16.40;1.00;;;;;;5052776;28;20774;-73
2021/07/01 02:26:39;;;;;;;5.53;4.10;;;16.30;1.00;;;;;;5052903;28;20182;-73
2021/07/01 02:29:09;;;;;;;5.43;3.47;;;16.30;1.00;;;;;;5055930;28;20182;-74
2021/07/01 02:31:35;;;;;;;6.63;3.87;;;16.30;1.00;;;;;;5052092;28;20176;-74
2021/07/01 02:34:01;;;;;;;5.63;4.13;;;16.20;1.00;;;;;;5052288;28;20425;-73
2021/07/01 02:36:26;;;;;;;6.83;4.00;;;16.20;1.00;;;;;;5052593;28;20266;-73
2021/07/01 02:38:53;;;;;;;6.23;3.90;;;;;;;;;;5053111;28;20680;-75
2021/07/01 02:41:18;;;;;;;7.03;3.50;;;16.20;1.00;;;;;;5052900;28;20164;-75
2021/07/01 02:43:57;;;;;;;11.03;3.90;;;16.20;1.00;;;;;;5066220;28;20932;-75
2021/07/01 02:46:23;;;;;;;14.53;3.77;;;;;;;;;;5072296;28;20167;-75
2021/07/01 02:48:49;;;;;;;10.87;4.03;;;;;;;;;;5052568;28;20500;-75
2021/07/01 02:51:27;;;;;;;5.47;3.60;;;16.20;1.00;;;;;;5054320;28;20860;-75
2021/07/01 02:54:21;;;;;;;9.73;4.07;;;16.20;1.00;;;;;;5072759;28;20542;-75
2021/07/01 02:56:58;;;;;;;4.93;3.37;;;16.10;1.00;;;;;;5072279;28;20506;-74
2021/07/01 02:59:24;;;;;;;6.13;3.67;;;16.10;1.00;;;;;;5070733;28;20447;-75
2021/07/01 03:01:51;;;;;;;5.70;3.30;;;16.10;1.00;;;;;;5074997;28;20389;-74
2021/07/01 03:04:17;;;;;;;6.10;3.70;;;16.00;1.00;;;;;;5073210;28;20167;-75
2021/07/01 03:06:57;;;;;;;8.10;3.30;;;16.00;1.00;;;;;;5055990;28;20759;-75
2021/07/01 03:09:23;;;;;;;8.07;3.60;;;16.00;1.00;;;;;;5056094;28;20195;-73
2021/07/01 03:11:49;;;;;;;17.23;4.23;;;15.90;1.00;;;;;;5060291;28;20418;-74
2021/07/01 03:14:15;;;;;;;10.23;4.80;;;15.90;1.00;;;;;;5055866;28;20213;-74
2021/07/01 03:16:45;;;;;;;8.43;5.23;;;15.90;1.00;;;;;;5059321;28;20279;-74
2021/07/01 03:19:11;;;;;;;9.10;5.20;;;15.90;1.00;;;;;;5056034;28;20402;-74
2021/07/01 03:21:39;;;;;;;11.53;4.97;;;15.90;1.00;;;;;;5055968;28;20877;-74
2021/07/01 03:24:05;;;;;;;12.53;5.80;;;15.80;1.00;;;;;;5055749;28;20191;-75
2021/07/01 03:26:33;;;;;;;15.97;5.10;;;15.80;1.00;;;;;;5056901;28;20773;-75
2021/07/01 03:28:59;;;;;;;12.40;5.93;;;15.70;1.00;;;;;;5061477;28;20171;-76
2021/07/01 03:31:39;;;;;;;11.23;6.00;;;15.70;1.00;;;;;;5066896;28;20590;-75
2021/07/01 03:34:05;;;;;;;14.93;7.80;;;15.60;1.00;;;;;;5055968;28;20182;-74
2021/07/01 03:36:39;;;;;;;11.37;6.27;;;15.60;1.00;;;;;;5055335;28;20445;-75
2021/07/01 03:39:09;;;;;;;11.80;6.80;;;15.60;1.00;;;;;;5056125;28;20568;-74
2021/07/01 03:41:35;;;;;;;11.60;7.23;;;15.60;1.00;;;;;;5060500;28;20440;-73
2021/07/01 03:44:01;;;;;;;13.13;5.90;;;;;;;;;;5054561;28;20467;-74
2021/07/01 03:46:27;;;;;;;12.43;5.67;;;15.70;1.00;;;;;;5056621;28;20168;-73
2021/07/01 03:48:52;;;;;;;10.37;5.73;;;15.70;1.00;;;;;;5075326;28;20404;-81
2021/07/01 03:58:02;;;;;;;6.27;4.57;;;15.60;1.00;;;;;;5075294;28;20389;-81
2021/07/01 04:10:57;;;;;;;12.40;5.33;;;15.80;1.00;;;;;;5054345;28;20782;-79
2021/07/01 04:13:45;;;;;;;8.77;4.40;;;15.80;1.00;;;;;;5054474;28;20406;-79
2021/07/01 04:19:33;;;;;;;8.87;4.93;;;;;;;;;;5054273;28;20368;-80
2021/07/01 04:28:43;;;;;;;8.90;4.47;;;16.00;1.00;;;;;;5054399;28;20374;-80
2021/07/01 04:31:51;;;;;;;18.73;5.37;;;16.10;1.00;;;;;;5054212;28;20385;-79
2021/07/01 04:38:09;;;;;;;5.60;4.03;;;16.10;1.00;;;;;;5053913;28;20468;-80
2021/07/01 04:47:19;;;;;;;8.60;3.90;;;;;;;;;;5059071;28;20463;-79
2021/07/01 04:50:15;;;;;;;5.40;3.90;;;16.20;1.00;;;;;;5073895;28;20390;-80
2021/07/01 04:53:26;;;;;;;18.13;4.30;;;16.20;1.00;;;;;;5071966;28;20413;-79
2021/07/01 04:55:51;;;;;;;10.77;3.80;;;16.20;1.00;;;;;;5073644;28;20490;-80
2021/07/01 04:58:17;;;;;;;4.60;3.50;;;16.20;1.00;;;;;;5070563;28;20432;-80
2021/07/01 05:14:11;;;;;;;9.17;3.70;;;16.30;1.00;;;;;;5059286;28;20536;-81
2021/07/01 05:16:36;;;;;;;13.33;3.63;;;16.40;1.00;;;;;;5059205;28;20905;-80
2021/07/01 05:19:02;;;;;;;5.30;3.90;;;;;;;;;;5060196;28;20401;-80
2021/07/01 05:21:28;;;;;;;7.53;4.17;;;16.50;1.00;;;;;;5066532;28;20182;-80
2021/07/01 05:23:54;;;;;;;9.00;4.50;;;16.50;1.00;;;;;;5070963;28;20815;-72
2021/07/01 05:26:20;;;;;;;7.90;4.30;;;16.50;1.00;;;;;;5072108;28;20372;-75
2021/07/01 05:28:46;;;;;;;7.13;3.40;;;;;;;;;;5053400;28;20922;-75
2021/07/01 05:31:12;;;;;;;4.77;3.43;;;16.60;1.00;;;;;;5059196;28;20182;-74
2021/07/01 05:33:38;;;;;;;7.13;3.70;;;16.50;1.00;;;;;;5066619;28;20448;-75
2021/07/01 05:36:05;;;;;;;5.57;3.00;;;16.50;1.00;;;;;;5063390;28;20488;-74
2021/07/01 05:38:31;;;;;;;7.63;3.80;;;16.60;1.00;;;;;;5054601;28;20440;-74
2021/07/01 05:40:57;;;;;;;10.00;3.83;;;16.50;1.00;;;;;;5063578;28;20441;-74
2021/07/01 05:43:24;;;;;;;7.50;3.60;;;16.50;1.00;;;;;;5052750;28;20980;-74
2021/07/01 05:45:50;;;;;;;6.53;3.10;;;16.40;1.00;;;;;;5051916;28;20202;-74
2021/07/01 05:48:17;;;;;;;8.23;3.57;;;16.40;1.00;;;;;;5051958;28;20448;-74
2021/07/01 05:50:48;;;;;;;21.63;4.50;;;16.40;1.00;;;;;;5050429;28;20816;-75
2021/07/01 05:53:22;;;;;;;4.80;3.23;;;16.40;1.00;;;;;;5052150;28;20715;-75
2021/07/01 05:55:48;;;;;;;6.00;3.50;;;16.30;1.00;;;;;;5058217;28;20474;-74
2021/07/01 05:58:13;;;;;;;4.90;3.60;;;16.30;1.00;;;;;;5072006;28;20403;-74
2021/07/01 06:00:40;;;;;;;15.90;3.20;;;16.30;1.00;;;;;;5064925;28;20668;-75
2021/07/01 06:03:06;;;;;;;8.90;3.90;;;;;;;;;;5055025;28;20622;-74
2021/07/01 06:05:33;;;;;;;4.23;3.10;;;16.20;1.00;;;;;;5051708;28;20380;-74
2021/07/01 06:07:59;;;;;;;18.30;2.87;;;16.20;1.00;;;;;;5053260;28;20407;-74
2021/07/01 06:10:28;;;;;;;7.60;3.70;;;16.10;1.00;;;;;;5051466;28;20441;-74
2021/07/01 06:12:55;;;;;;;6.77;3.40;;;16.10;1.00;;;;;;5058859;28;20501;-74
2021/07/01 06:15:20;;;;;;;4.07;3.30;;;16.10;1.00;;;;;;5071661;28;20390;-75
2021/07/01 06:17:48;;;;;;;5.40;2.80;;;16.10;1.00;;;;;;5064780;28;20445;-74
2021/07/01 06:20:14;;;;;;;2.40;2.20;;;16.00;99.90;;;;;;5060144;28;20223;-75
2021/07/01 06:22:41;;;;;;;2.07;1.80;;;15.90;99.90;;;;;;5071763;28;20396;-74
2021/07/01 06:25:07;;;;;;;2.13;1.70;;;15.80;99.90;;;;;;5058706;28;20199;-74
2021/07/01 06:27:37;;;;;;;1.83;1.73;;;;;;;;;;5071955;28;20887;-74
2021/07/01 06:30:14;;;;;;;1.90;1.70;;;15.70;99.90;;;;;;5063699;28;20408;-74
2021/07/01 06:32:44;;;;;;;17.33;4.23;;;;;;;;;;5051816;28;20405;-75
2021/07/01 06:35:19;;;;;;;3.10;1.90;;;15.60;99.90;;;;;;5070886;28;20512;-74
2021/07/01 06:37:45;;;;;;;4.73;2.07;;;15.50;99.90;;;;;;5075101;28;20403;-74
2021/07/01 06:40:13;;;;;;;3.37;2.00;;;15.50;99.90;;;;;;5055910;28;20373;-74
2021/07/01 06:42:48;;;;;;;4.73;2.20;;;15.50;99.90;;;;;;5066553;28;20916;-74
2021/07/01 06:45:16;;;;;;;2.40;2.17;;;15.50;99.90;;;;;;5073914;28;20401;-74
2021/07/01 06:47:50;;;;;;;2.53;2.13;;;15.60;1.00;;;;;;5074492;28;20399;-74
2021/07/01 06:50:17;;;;;;;5.23;2.23;;;15.60;1.00;;;;;;5075260;28;20479;-74
2021/07/01 06:52:44;;;;;;;3.07;2.50;;;15.70;1.00;;;;;;5067970;28;20421;-74
2021/07/01 06:55:14;;;;;;;3.37;2.30;;;15.80;1.00;;;;;;5070066;28;20403;-74
2021/07/01 06:57:40;;;;;;;5.50;2.53;;;15.90;1.00;;;;;;5068442;28;20453;-74
2021/07/01 07:00:08;;;;;;;2.60;2.40;;;15.90;1.00;;;;;;5055422;28;20394;-75
2021/07/01 07:02:34;;;;;;;3.60;2.00;;;15.90;1.00;;;;;;5060361;28;20463;-75
2021/07/01 07:05:04;;;;;;;1.80;1.70;;;15.90;99.90;;;;;;5061872;28;20377;-74
2021/07/01 07:07:32;;;;;;;15.33;4.23;;;15.90;99.90;;;;;;5053378;28;20486;-74
2021/07/01 07:10:01;;;;;;;3.77;2.20;;;15.90;99.90;;;;;;5071057;28;20425;-74
2021/07/01 07:12:27;;;;;;;2.43;1.90;;;;;;;;;;5070161;28;20407;-74
2021/07/01 07:14:53;;;;;;;7.47;1.97;;;15.90;99.90;;;;;;5070196;28;20899;-74
2021/07/01 07:17:19;;;;;;;1.83;1.67;;;15.80;99.90;;;;;;5072780;28;20454;-74
2021/07/01 07:19:48;;;;;;;7.23;1.63;;;15.90;99.90;;;;;;5064924;28;20191;-74
2021/07/01 07:22:17;;;;;;;4.57;1.90;;;16.10;99.90;;;;;;5054477;28;20402;-74
2021/07/01 07:24:51;;;;;;;2.40;2.13;;;16.20;99.90;;;;;;5053310;28;20952;-74
2021/07/01 07:27:20;;;;;;;2.47;1.90;;;16.40;99.90;;;;;;5069927;28;20380;-75
2021/07/01 07:29:46;;;;;;;4.23;2.00;;;16.70;99.90;;;;;;5070188;28;20409;-74
2021/07/01 07:32:14;;;;;;;7.00;2.33;;;16.90;99.90;;;;;;5074578;28;20492;-75
2021/07/01 07:34:42;;;;;;;6.57;2.17;;;17.20;99.90;;;;;;5074554;28;20167;-74
2021/07/01 07:37:08;;;;;;;3.67;1.53;;;17.30;99.90;;;;;;5074162;28;20420;-74
2021/07/01 07:39:33;;;;;;;2.33;1.73;;;17.50;99.90;;;;;;5058720;28;20450;-75
2021/07/01 07:42:00;;;;;;;1.70;1.60;;;17.70;99.90;;;;;;5053173;28;20489;-74
2021/07/01 07:44:26;;;;;;;10.70;2.87;;;18.00;99.90;;;;;;5056480;28;20566;-74
2021/07/01 07:46:52;;;;;;;1.70;1.50;;;18.10;99.90;;;;;;5073582;28;20400;-74
2021/07/01 07:49:19;;;;;;;3.90;1.63;;;18.10;99.90;;;;;;5073365;28;20461;-74
2021/07/01 07:51:49;;;;;;;8.20;2.63;;;18.30;99.90;;;;;;5073980;28;20400;-74
2021/07/01 07:54:17;;;;;;;4.03;2.23;;;18.30;99.90;;;;;;5074106;28;20428;-74
2021/07/01 07:56:48;;;;;;;2.50;1.70;;;18.30;99.90;;;;;;5069085;28;20963;-75
2021/07/01 07:59:19;;;;;;;2.03;1.90;;;18.20;99.90;;;;;;5054256;28;20394;-74
2021/07/01 08:01:48;;;;;;;10.33;2.00;;;18.30;99.90;;;;;;5054017;28;20551;-74
2021/07/01 08:04:16;;;;;;;4.70;1.87;;;18.40;99.90;;;;;;5062586;28;20422;-74
2021/07/01 08:06:44;;;;;;;5.53;2.57;;;18.50;99.90;;;;;;5071676;28;20517;-74
2021/07/01 08:09:12;;;;;;;2.50;1.77;;;18.60;99.90;;;;;;5073160;28;20416;-74
2021/07/01 08:11:41;;;;;;;2.00;1.70;;;18.70;99.90;;;;;;5073524;28;20776;-74
2021/07/01 08:14:07;;;;;;;7.87;1.73;;;18.70;99.90;;;;;;5073919;28;20399;-74
2021/07/01 08:16:34;;;;;;;1.90;1.70;;;18.70;99.90;;;;;;5073928;28;20527;-74
2021/07/01 08:19:00;;;;;;;4.63;1.83;;;18.70;99.90;;;;;;5071178;28;20460;-74
2021/07/01 08:21:27;;;;;;;3.63;1.80;;;18.70;99.90;;;;;;5062550;28;20605;-74
2021/07/01 08:23:53;;;;;;;3.43;2.30;;;18.60;99.90;;;;;;5073475;28;20438;-73
2021/07/01 08:26:19;;;;;;;11.93;1.70;;;18.80;99.90;;;;;;5074125;28;20392;-74
2021/07/01 08:28:45;;;;;;;2.60;1.80;;;18.70;99.90;;;;;;5074022;28;20400;-75
2021/07/01 08:31:18;;;;;;;2.67;1.60;;;18.80;99.90;;;;;;5065252;28;20451;-75
2021/07/01 08:33:46;;;;;;;5.37;1.90;;;18.90;99.90;;;;;;5053404;28;20183;-74
2021/07/01 08:36:23;;;;;;;13.10;2.20;;;18.90;99.90;;;;;;5052910;28;20543;-75
2021/07/01 08:38:54;;;;;;;7.03;2.17;;;19.00;99.90;;;;;;5063397;28;20428;-74
2021/07/01 08:41:29;;;;;;;5.50;2.07;;;19.10;99.90;;;;;;5060781;28;20819;-74
2021/07/01 08:43:59;;;;;;;6.13;1.40;;;19.10;99.90;;;;;;5065575;28;20933;-75
2021/07/01 08:46:42;;;;;;;1.60;1.50;;;19.00;99.90;;;;;;5052940;28;20929;-74
2021/07/01 08:49:09;;;;;;;1.20;1.10;;;18.90;99.90;;;;;;5060619;28;20424;-74
2021/07/01 08:51:39;;;;;;;4.83;1.20;;;18.70;99.90;;;;;;5073340;28;20405;-74
2021/07/01 08:54:25;;;;;;;2.50;1.40;;;18.60;99.90;;;;;;5072704;28;20448;-75
2021/07/01 08:56:53;;;;;;;12.20;1.97;;;18.60;99.90;;;;;;5051803;28;20469;-74
2021/07/01 08:59:20;;;;;;;2.13;1.50;;;18.70;99.90;;;;;;5051997;28;20486;-74
2021/07/01 09:02:01;;;;;;;4.07;1.60;;;18.80;99.90;;;;;;5052533;28;20407;-75
2021/07/01 09:04:34;;;;;;;1.70;1.60;;;18.80;99.90;;;;;;5052969;28;20427;-74
2021/07/01 09:07:02;;;;;;;9.57;1.87;;;19.00;99.90;;;;;;5051926;28;20434;-74
2021/07/01 09:09:36;;;;;;;1.50;1.40;;;19.20;99.90;;;;;;5052917;28;20402;-74
2021/07/01 09:12:07;;;;;;;1.70;1.57;;;19.40;99.90;;;;;;5052969;28;20401;-75
2021/07/01 09:14:36;;;;;;;1.47;1.20;;;19.50;99.90;;;;;;5052508;28;20829;-74
2021/07/01 09:17:12;;;;;;;1.97;1.20;;;19.50;99.90;;;;;;5055178;28;20463;-74
2021/07/01 09:19:39;;;;;;;1.33;1.03;;;19.50;99.90;;;;;;5050589;28;20520;-74
2021/07/01 09:22:10;;;;;;;5.40;1.13;;;;;;;;;;5064229;28;20451;-74
2021/07/01 09:24:37;;;;;;;7.03;1.70;;;19.20;99.90;;;;;;5072210;28;20435;-74
2021/07/01 09:27:23;;;;;;;10.80;1.43;;;19.10;99.90;;;;;;5053107;28;20458;-75
2021/07/01 09:29:50;;;;;;;5.03;1.40;;;19.10;99.90;;;;;;5052630;28;20377;-74
2021/07/01 09:32:19;;;;;;;3.00;1.43;;;19.10;99.90;;;;;;5052311;28;20473;-74
2021/07/01 09:34:46;;;;;;;8.90;1.37;;;19.00;99.90;;;;;;5052010;28;20980;-74
2021/07/01 09:37:12;;;;;;;2.10;1.20;;;19.00;99.90;;;;;;5054922;28;20484;-74
2021/07/01 09:39:39;;;;;;;2.80;1.10;;;19.00;99.90;;;;;;5071972;28;20423;-74
2021/07/01 09:42:07;;;;;;;1.67;1.07;;;18.90;99.90;;;;;;5072958;28;20419;-73
2021/07/01 09:44:38;;;;;;;1.67;1.10;;;18.90;99.90;;;;;;5072326;28;20951;-73
2021/07/01 09:47:07;;;;;;;1.77;0.90;;;18.90;99.90;;;;;;5072212;28;20397;-73
2021/07/01 09:49:38;;;;;;;3.07;0.80;;;19.00;99.90;;;;;;5071913;28;20396;-74
2021/07/01 09:52:10;;;;;;;0.83;0.83;;;19.00;99.90;;;;;;5072407;28;20375;-74
2021/07/01 09:54:38;;;;;;;1.83;0.80;;;19.00;99.90;;;;;;5071983;28;20440;-74
2021/07/01 09:57:07;;;;;;;0.90;0.90;;;;;;;;;;5065995;28;20475;-74
2021/07/01 09:59:47;;;;;;;1.10;0.90;;;19.20;99.90;;;;;;5072282;28;20492;-74
2021/07/01 10:02:18;;;;;;;1.43;1.23;;;19.30;99.90;;;;;;5071572;28;20864;-74
2021/07/01 10:04:45;;;;;;;0.93;0.90;;;19.30;99.90;;;;;;5072299;28;20374;-74
2021/07/01 10:07:19;;;;;;;0.70;0.70;;;19.30;99.90;;;;;;5071952;28;20400;-75
2021/07/01 10:09:47;;;;;;;3.93;1.33;;;19.30;99.90;;;;;;5073113;28;20451;-75
2021/07/01 10:12:19;;;;;;;0.90;0.90;;;19.20;99.90;;;;;;5078826;28;20404;-73
2021/07/01 10:14:45;;;;;;;1.73;0.90;;;19.10;99.90;;;;;;5079307;28;20423;-73
2021/07/01 10:17:17;;;;;;;2.00;0.80;;;18.80;99.90;;;;;;5078712;28;20494;-73
2021/07/01 10:19:44;;;;;;;0.60;0.60;;;18.40;99.90;;;;;;5078322;28;20393;-74
2021/07/01 10:22:12;;;;;;;1.00;0.90;;;18.20;99.90;;;;;;5078574;28;20404;-74
2021/07/01 10:24:47;;;;;;;0.90;0.70;;;18.20;99.90;;;;;;5078402;28;20918;-75
2021/07/01 10:27:30;;;;;;;1.20;0.80;;;18.40;99.90;;;;;;5075366;28;20438;-74
2021/07/01 10:29:58;;;;;;;2.03;0.80;;;18.50;99.90;;;;;;5062393;28;20443;-74
2021/07/01 10:32:45;;;;;;;3.13;0.97;;;18.40;99.90;;;;;;5058585;28;20831;-75
2021/07/01 10:35:41;;;;;;;1.87;1.10;;;18.50;99.90;;;;;;5057877;28;20428;-74
2021/07/01 10:38:11;;;;;;;1.63;1.03;;;18.70;99.90;;;;;;5067065;28;20412;-74
2021/07/01 10:40:43;;;;;;;2.20;1.20;;;18.70;99.90;;;;;;5061751;28;20410;-74
2021/07/01 10:43:09;;;;;;;9.13;2.20;;;18.90;99.90;;;;;;5060336;28;20790;-73
2021/07/01 10:45:35;;;;;;;1.03;0.80;;;19.30;99.90;;;;;;5068860;28;20530;-73
2021/07/01 10:48:15;;;;;;;4.60;0.90;;;19.50;99.90;;;;;;5062821;28;20403;-73
2021/07/01 10:50:43;;;;;;;1.10;0.90;;;19.60;99.90;;;;;;5055990;28;20397;-73
2021/07/01 10:53:29;;;;;;;1.10;0.97;;;19.80;99.90;;;;;;5056704;28;20419;-74
2021/07/01 10:56:00;;;;;;;1.43;1.07;;;20.00;99.90;;;;;;5064274;28;20468;-73
2021/07/01 10:58:27;;;;;;;7.73;1.40;;;20.00;99.90;;;;;;5068676;28;20774;-73
2021/07/01 11:01:00;;;;;;;1.77;1.30;;;20.20;99.90;;;;;;5076394;28;20416;-73
2021/07/01 11:03:28;;;;;;;1.13;1.00;;;20.10;99.90;;;;;;5076995;28;20427;-73
2021/07/01 11:05:55;;;;;;;4.80;1.80;;;20.30;99.90;;;;;;5076561;28;20406;-74
2021/07/01 11:08:35;;;;;;;7.00;2.23;;;20.20;99.90;;;;;;5075069;28;20440;-73
2021/07/01 11:11:04;;;;;;;1.90;1.67;;;20.20;99.90;;;;;;5068695;28;20456;-73
2021/07/01 11:13:31;;;;;;;2.00;1.90;;;20.00;99.90;;;;;;5056364;28;20404;-74
2021/07/01 11:16:14;;;;;;;3.33;1.67;;;19.90;99.90;;;;;;5066678;28;20462;-74
2021/07/01 11:18:40;;;;;;;5.27;2.17;;;;;;;;;;5068986;28;20431;-75
2021/07/01 11:21:11;;;;;;;2.60;1.90;;;19.60;99.90;;;;;;5061418;28;20437;-75
2021/07/01 11:23:37;;;;;;;7.17;2.97;;;19.70;99.90;;;;;;5069767;28;20445;-74
2021/07/01 11:26:25;;;;;;;1.90;1.80;;;19.70;99.90;;;;;;5054888;28;20376;-74
2021/07/01 11:28:51;;;;;;;4.80;2.80;;;19.60;99.90;;;;;;5054651;28;20391;-73
2021/07/01 11:31:17;;;;;;;3.00;2.10;;;19.60;99.90;;;;;;5055088;28;20372;-73
2021/07/01 11:33:51;;;;;;;4.37;2.63;;;19.70;99.90;;;;;;5061651;28;20749;-73
2021/07/01 11:36:19;;;;;;;4.50;2.30;;;19.70;99.90;;;;;;5059616;28;20461;-73
2021/07/01 11:38:46;;;;;;;3.00;2.70;;;19.50;99.90;;;;;;5053538;28;20612;-74
2021/07/01 11:41:13;;;;;;;6.70;3.20;;;19.40;99.90;;;;;;5072387;28;20482;-73
2021/07/01 11:43:40;;;;;;;7.77;3.80;;;19.40;99.90;;;;;;5065402;28;20413;-74
2021/07/01 11:46:07;;;;;;;8.03;3.00;;;19.20;99.90;;;;;;5054619;28;20437;-74
2021/07/01 11:48:33;;;;;;;13.53;3.43;;;19.20;99.90;;;;;;5053965;28;20911;-75
2021/07/01 11:51:02;;;;;;;3.77;3.10;;;19.20;99.90;;;;;;5065231;28;20432;-75
2021/07/01 11:53:29;;;;;;;4.40;3.17;;;19.30;99.90;;;;;;5060246;28;20433;-74
2021/07/01 11:56:00;;;;;;;5.93;3.13;;;19.40;99.90;;;;;;5066835;28;20954;-75
2021/07/01 11:58:27;;;;;;;5.90;2.90;;;19.50;99.90;;;;;;5054020;28;20514;-74
2021/07/01 12:00:54;;;;;;;4.40;3.40;;;19.70;99.90;;;;;;5054257;28;20400;-75
2021/07/01 12:03:22;;;;;;;4.57;2.73;;;19.80;99.90;;;;;;5057422;28;20441;-75
2021/07/01 12:05:50;;;;;;;3.40;3.10;;;19.90;99.90;;;;;;5053712;28;20467;-75
2021/07/01 12:08:16;;;;;;;4.17;2.60;;;19.80;99.90;;;;;;5053662;28;20431;-74
2021/07/01 12:10:44;;;;;;;5.90;3.43;;;19.70;99.90;;;;;;5076414;28;20411;-75
2021/07/01 12:13:32;;;;;;;3.53;2.93;;;19.90;99.90;;;;;;5055390;28;20467;-74
2021/07/01 12:16:12;;;;;;;4.93;3.00;;;20.00;99.90;;;;;;5053532;28;20461;-74
2021/07/01 12:18:46;;;;;;;12.10;3.30;;;20.10;99.90;;;;;;5059508;28;20431;-74
2021/07/01 12:21:27;;;;;;;4.83;3.33;;;20.20;99.90;;;;;;5063083;28;20440;-74
2021/07/01 12:24:03;;;;;;;5.17;3.30;;;20.30;99.90;;;;;;5054955;28;20424;-74
2021/07/01 12:26:49;;;;;;;8.03;2.90;;;20.30;99.90;;;;;;5061223;28;20410;-74
2021/07/01 12:29:22;;;;;;;3.97;3.10;;;20.20;99.90;;;;;;5058263;28;20441;-74
2021/07/01 12:31:48;;;;;;;3.47;3.13;;;20.10;99.90;;;;;;5058259;28;20433;-77
2021/07/01 12:34:21;;;;;;;4.90;3.47;;;20.10;99.90;;;;;;5053518;28;20399;-76
2021/07/01 12:37:03;;;;;;;4.00;3.20;;;20.00;99.90;;;;;;5065278;28;20506;-80
2021/07/01 12:39:30;;;;;;;4.47;3.40;;;20.00;99.90;;;;;;5071354;28;20380;-78
2021/07/01 12:41:57;;;;;;;5.77;3.13;;;20.10;99.90;;;;;;5071748;28;20414;-77
2021/07/01 12:44:22;;;;;;;5.97;3.10;;;20.10;99.90;;;;;;5057208;28;20389;-79
2021/07/01 12:46:48;;;;;;;3.30;2.97;;;20.20;99.90;;;;;;5053016;28;20426;-78
2021/07/01 12:49:37;;;;;;;5.90;3.30;;;20.20;99.90;;;;;;5053330;28;20162;-78
2021/07/01 12:52:06;;;;;;;4.33;3.30;;;20.30;99.90;;;;;;5053512;28;20155;-78
2021/07/01 12:54:31;;;;;;;6.83;3.67;;;20.30;99.90;;;;;;5053213;28;20450;-78
2021/07/01 12:56:57;;;;;;;6.10;2.97;;;20.30;99.90;;;;;;5052633;28;20534;-78
2021/07/01 12:59:28;;;;;;;4.80;2.63;;;20.00;99.90;;;;;;5053769;28;20520;-81
2021/07/01 13:02:01;;;;;;;6.80;3.57;;;20.00;99.90;;;;;;5053040;28;20155;-79
2021/07/01 13:04:28;;;;;;;6.70;3.20;;;19.90;99.90;;;;;;5070535;28;20427;-79
2021/07/01 13:06:55;;;;;;;9.10;3.03;;;19.70;99.90;;;;;;5072887;28;20396;-79
2021/07/01 13:09:35;;;;;;;6.50;3.10;;;19.60;99.90;;;;;;5072608;28;20408;-79
2021/07/01 13:12:03;;;;;;;8.73;3.30;;;19.50;99.90;;;;;;5062711;28;20417;-79
2021/07/01 13:14:30;;;;;;;5.27;2.97;;;19.60;99.90;;;;;;5053649;28;20417;-81
2021/07/01 13:16:59;;;;;;;6.13;2.83;;;19.70;99.90;;;;;;5064727;28;20496;-81
2021/07/01 13:19:25;;;;;;;5.20;3.70;;;19.70;99.90;;;;;;5053197;28;20504;-80
2021/07/01 13:21:53;;;;;;;4.23;3.20;;;19.60;99.90;;;;;;5053384;28;20476;-80
2021/07/01 13:24:19;;;;;;;16.40;5.40;;;;;;;;;;5066240;28;20190;-75
2021/07/01 13:26:46;;;;;;;14.37;3.50;;;19.70;99.90;;;;;;5072531;28;20393;-74
2021/07/01 13:29:12;;;;;;;4.13;2.73;;;;;;;;;;5064550;28;20420;-74
2021/07/01 13:31:38;;;;;;;6.33;3.07;;;;;;;;;;5052590;28;20897;-74
2021/07/01 13:34:05;;;;;;;7.07;2.80;;;19.60;99.90;;;;;;5056812;28;20475;-74
2021/07/01 13:36:31;;;;;;;4.43;3.50;;;;;;;;;;5065687;28;20982;-75
2021/07/01 13:38:57;;;;;;;3.67;2.70;;;19.60;99.90;;;;;;5051965;28;20735;-74
2021/07/01 13:41:27;;;;;;;3.20;2.90;;;19.60;99.90;;;;;;5052130;28;20492;-73
2021/07/01 13:43:52;;;;;;;6.37;2.83;;;19.40;99.90;;;;;;5065986;28;20273;-76
2021/07/01 13:46:20;;;;;;;3.77;2.80;;;19.30;99.90;;;;;;5071240;28;20935;-76
2021/07/01 13:48:46;;;;;;;3.60;2.77;;;19.20;99.90;;;;;;5072218;28;20217;-76
2021/07/01 13:51:12;;;;;;;4.23;2.60;;;;;;;;;;5072438;28;20403;-76
2021/07/01 13:53:51;;;;;;;3.33;2.40;;;19.20;99.90;;;;;;5055980;28;20175;-76
2021/07/01 13:56:22;;;;;;;5.20;3.27;;;19.20;99.90;;;;;;5052935;28;20457;-75
2021/07/01 13:58:50;;;;;;;5.23;2.47;;;19.20;99.90;;;;;;5053911;28;20380;-73
2021/07/01 14:01:15;;;;;;;4.53;2.80;;;19.20;99.90;;;;;;5071665;28;20752;-74